sensor_id;sensor_type;location;lat;lon;timestamp;P1;durP1;ratioP1;P2;durP2;ratioP2
52940;SDS011;62001;53.366;6.636;2023-05-20T00:02:00;20.85;;;7.03;;
52940;SDS011;62001;53.366;6.636;2023-05-20T00:04:26;14.23;;;6.03;;
52940;SDS011;62001;53.366;6.636;2023-05-20T00:06:52;16.63;;;6.70;;
52940;SDS011;62001;53.366;6.636;2023-05-20T00:09:19;18.33;;;7.07;;
52940;SDS011;62001;53.366;6.636;2023-05-20T00:11:45;22.53;;;7.90;;
52940;SDS011;62001;53.366;6.636;2023-05-20T00:14:11;16.17;;;6.57;;
52940;SDS011;62001;53.366;6.636;2023-05-20T00:16:37;16.90;;;7.30;;
52940;SDS011;62001;53.366;6.636;2023-05-20T00:19:02;15.47;;;6.90;;
52940;SDS011;62001;53.366;6.636;2023-05-20T00:21:28;13.90;;;6.33;;
52940;SDS011;62001;53.366;6.636;2023-05-20T00:23:55;16.63;;;6.90;;
52940;SDS011;62001;53.366;6.636;2023-05-20T00:26:21;18.57;;;6.87;;
52940;SDS011;62001;53.366;6.636;2023-05-20T00:28:46;13.53;;;6.60;;
52940;SDS011;62001;53.366;6.636;2023-05-20T00:31:12;18.80;;;6.93;;
52940;SDS011;62001;53.366;6.636;2023-05-20T00:33:38;13.97;;;7.20;;
52940;SDS011;62001;53.366;6.636;2023-05-20T00:36:04;19.00;;;7.57;;
52940;SDS011;62001;53.366;6.636;2023-05-20T00:38:30;14.83;;;7.00;;
52940;SDS011;62001;53.366;6.636;2023-05-20T00:40:57;14.43;;;7.20;;
52940;SDS011;62001;53.366;6.636;2023-05-20T00:43:23;19.03;;;7.80;;
52940;SDS011;62001;53.366;6.636;2023-05-20T00:45:53;10.53;;;7.17;;
52940;SDS011;62001;53.366;6.636;2023-05-20T00:48:19;16.03;;;7.20;;
52940;SDS011;62001;53.366;6.636;2023-05-20T00:50:46;17.07;;;7.70;;
52940;SDS011;62001;53.366;6.636;2023-05-20T00:53:14;20.17;;;7.23;;
52940;SDS011;62001;53.366;6.636;2023-05-20T00:55:42;15.00;;;6.53;;
52940;SDS011;62001;53.366;6.636;2023-05-20T00:58:08;14.27;;;7.53;;
52940;SDS011;62001;53.366;6.636;2023-05-20T01:00:34;11.50;;;6.50;;
52940;SDS011;62001;53.366;6.636;2023-05-20T01:03:00;13.33;;;7.00;;
52940;SDS011;62001;53.366;6.636;2023-05-20T01:05:26;17.27;;;6.80;;
52940;SDS011;62001;53.366;6.636;2023-05-20T01:07:52;13.80;;;6.97;;
52940;SDS011;62001;53.366;6.636;2023-05-20T01:10:18;18.70;;;6.60;;
52940;SDS011;62001;53.366;6.636;2023-05-20T01:12:45;16.60;;;7.00;;
52940;SDS011;62001;53.366;6.636;2023-05-20T01:15:15;12.88;;;6.28;;
52940;SDS011;62001;53.366;6.636;2023-05-20T01:17:42;14.10;;;6.50;;
52940;SDS011;62001;53.366;6.636;2023-05-20T01:20:11;13.13;;;6.17;;
52940;SDS011;62001;53.366;6.636;2023-05-20T01:22:45;14.30;;;6.57;;
52940;SDS011;62001;53.366;6.636;2023-05-20T01:25:17;14.13;;;6.07;;
52940;SDS011;62001;53.366;6.636;2023-05-20T01:27:43;14.27;;;6.43;;
52940;SDS011;62001;53.366;6.636;2023-05-20T01:30:09;13.20;;;6.40;;
52940;SDS011;62001;53.366;6.636;2023-05-20T01:32:40;14.90;;;6.20;;
52940;SDS011;62001;53.366;6.636;2023-05-20T01:35:12;14.60;;;6.00;;
52940;SDS011;62001;53.366;6.636;2023-05-20T01:37:39;16.70;;;5.83;;
52940;SDS011;62001;53.366;6.636;2023-05-20T01:40:06;19.87;;;6.20;;
52940;SDS011;62001;53.366;6.636;2023-05-20T01:42:33;18.10;;;6.10;;
52940;SDS011;62001;53.366;6.636;2023-05-20T01:45:00;15.27;;;5.93;;
52940;SDS011;62001;53.366;6.636;2023-05-20T01:47:27;11.80;;;5.90;;
52940;SDS011;62001;53.366;6.636;2023-05-20T01:49:53;15.13;;;6.53;;
52940;SDS011;62001;53.366;6.636;2023-05-20T01:52:19;14.20;;;5.53;;
52940;SDS011;62001;53.366;6.636;2023-05-20T01:54:46;11.30;;;5.73;;
52940;SDS011;62001;53.366;6.636;2023-05-20T01:57:18;10.90;;;6.10;;
52940;SDS011;62001;53.366;6.636;2023-05-20T01:59:45;13.77;;;5.70;;
52940;SDS011;62001;53.366;6.636;2023-05-20T02:02:11;13.80;;;5.93;;
52940;SDS011;62001;53.366;6.636;2023-05-20T02:04:37;11.27;;;5.47;;
52940;SDS011;62001;53.366;6.636;2023-05-20T02:07:03;11.47;;;4.97;;
52940;SDS011;62001;53.366;6.636;2023-05-20T02:09:29;14.93;;;5.50;;
52940;SDS011;62001;53.366;6.636;2023-05-20T02:11:55;10.70;;;5.70;;
52940;SDS011;62001;53.366;6.636;2023-05-20T02:14:21;13.73;;;5.67;;
52940;SDS011;62001;53.366;6.636;2023-05-20T02:16:47;8.63;;;4.77;;
52940;SDS011;62001;53.366;6.636;2023-05-20T02:19:13;12.33;;;5.00;;
52940;SDS011;62001;53.366;6.636;2023-05-20T02:24:13;11.50;;;4.53;;
52940;SDS011;62001;53.366;6.636;2023-05-20T02:26:38;9.83;;;4.53;;
52940;SDS011;62001;53.366;6.636;2023-05-20T02:29:05;11.53;;;4.47;;
52940;SDS011;62001;53.366;6.636;2023-05-20T02:31:31;9.93;;;4.73;;
52940;SDS011;62001;53.366;6.636;2023-05-20T02:33:56;11.70;;;4.60;;
52940;SDS011;62001;53.366;6.636;2023-05-20T02:36:22;10.07;;;4.70;;
52940;SDS011;62001;53.366;6.636;2023-05-20T02:38:48;10.70;;;4.03;;
52940;SDS011;62001;53.366;6.636;2023-05-20T02:41:15;10.93;;;4.53;;
52940;SDS011;62001;53.366;6.636;2023-05-20T02:43:41;7.90;;;4.23;;
52940;SDS011;62001;53.366;6.636;2023-05-20T02:46:09;9.23;;;4.23;;
52940;SDS011;62001;53.366;6.636;2023-05-20T02:48:35;7.90;;;3.80;;
52940;SDS011;62001;53.366;6.636;2023-05-20T02:51:00;10.30;;;4.10;;
52940;SDS011;62001;53.366;6.636;2023-05-20T02:53:26;9.47;;;3.93;;
52940;SDS011;62001;53.366;6.636;2023-05-20T02:55:52;12.57;;;3.73;;
52940;SDS011;62001;53.366;6.636;2023-05-20T02:58:18;9.73;;;4.07;;
52940;SDS011;62001;53.366;6.636;2023-05-20T03:00:50;8.30;;;4.03;;
52940;SDS011;62001;53.366;6.636;2023-05-20T03:03:16;5.33;;;3.67;;
52940;SDS011;62001;53.366;6.636;2023-05-20T03:05:42;9.77;;;3.47;;
52940;SDS011;62001;53.366;6.636;2023-05-20T03:08:10;7.13;;;3.63;;
52940;SDS011;62001;53.366;6.636;2023-05-20T03:10:39;13.87;;;3.90;;
52940;SDS011;62001;53.366;6.636;2023-05-20T03:13:05;5.70;;;3.07;;
52940;SDS011;62001;53.366;6.636;2023-05-20T03:15:42;10.53;;;3.40;;
52940;SDS011;62001;53.366;6.636;2023-05-20T03:18:11;4.53;;;3.13;;
52940;SDS011;62001;53.366;6.636;2023-05-20T03:20:38;7.33;;;3.27;;
52940;SDS011;62001;53.366;6.636;2023-05-20T03:23:05;4.60;;;3.53;;
52940;SDS011;62001;53.366;6.636;2023-05-20T03:25:32;7.40;;;3.40;;
52940;SDS011;62001;53.366;6.636;2023-05-20T03:27:58;6.37;;;3.10;;
52940;SDS011;62001;53.366;6.636;2023-05-20T03:30:24;7.80;;;3.00;;
52940;SDS011;62001;53.366;6.636;2023-05-20T03:32:50;7.43;;;3.00;;
52940;SDS011;62001;53.366;6.636;2023-05-20T03:35:17;5.80;;;3.33;;
52940;SDS011;62001;53.366;6.636;2023-05-20T03:37:43;10.50;;;3.70;;
52940;SDS011;62001;53.366;6.636;2023-05-20T03:40:09;10.40;;;3.17;;
52940;SDS011;62001;53.366;6.636;2023-05-20T03:42:35;7.73;;;2.57;;
52940;SDS011;62001;53.366;6.636;2023-05-20T03:45:02;7.37;;;3.10;;
52940;SDS011;62001;53.366;6.636;2023-05-20T03:47:28;6.50;;;2.90;;
52940;SDS011;62001;53.366;6.636;2023-05-20T03:49:54;6.53;;;2.85;;
52940;SDS011;62001;53.366;6.636;2023-05-20T03:52:20;4.60;;;2.70;;
52940;SDS011;62001;53.366;6.636;2023-05-20T03:54:46;7.68;;;2.70;;
52940;SDS011;62001;53.366;6.636;2023-05-20T03:57:12;4.38;;;2.58;;
52940;SDS011;62001;53.366;6.636;2023-05-20T03:59:38;8.65;;;3.10;;
52940;SDS011;62001;53.366;6.636;2023-05-20T04:02:04;7.50;;;2.90;;
52940;SDS011;62001;53.366;6.636;2023-05-20T04:04:30;4.20;;;2.73;;
52940;SDS011;62001;53.366;6.636;2023-05-20T04:06:57;6.43;;;2.60;;
52940;SDS011;62001;53.366;6.636;2023-05-20T04:09:29;5.53;;;2.90;;
52940;SDS011;62001;53.366;6.636;2023-05-20T04:11:55;4.07;;;2.60;;
52940;SDS011;62001;53.366;6.636;2023-05-20T04:14:21;6.80;;;3.10;;
52940;SDS011;62001;53.366;6.636;2023-05-20T04:16:46;4.32;;;2.53;;
52940;SDS011;62001;53.366;6.636;2023-05-20T04:19:14;6.00;;;3.10;;
52940;SDS011;62001;53.366;6.636;2023-05-20T04:21:41;5.80;;;2.50;;
52940;SDS011;62001;53.366;6.636;2023-05-20T04:24:08;6.15;;;2.70;;
52940;SDS011;62001;53.366;6.636;2023-05-20T04:26:33;3.67;;;2.58;;
52940;SDS011;62001;53.366;6.636;2023-05-20T04:29:00;4.55;;;2.40;;
52940;SDS011;62001;53.366;6.636;2023-05-20T04:31:28;3.75;;;2.22;;
52940;SDS011;62001;53.366;6.636;2023-05-20T04:33:55;5.38;;;2.22;;
52940;SDS011;62001;53.366;6.636;2023-05-20T04:36:21;5.18;;;1.88;;
52940;SDS011;62001;53.366;6.636;2023-05-20T04:38:55;7.22;;;2.05;;
52940;SDS011;62001;53.366;6.636;2023-05-20T04:41:21;2.60;;;1.85;;
52940;SDS011;62001;53.366;6.636;2023-05-20T04:43:48;5.47;;;2.20;;
52940;SDS011;62001;53.366;6.636;2023-05-20T04:46:14;3.92;;;1.90;;
52940;SDS011;62001;53.366;6.636;2023-05-20T04:48:40;4.55;;;2.10;;
52940;SDS011;62001;53.366;6.636;2023-05-20T04:51:08;2.13;;;1.67;;
52940;SDS011;62001;53.366;6.636;2023-05-20T04:53:34;4.00;;;2.00;;
52940;SDS011;62001;53.366;6.636;2023-05-20T04:56:00;3.00;;;1.55;;
52940;SDS011;62001;53.366;6.636;2023-05-20T04:58:27;4.03;;;1.73;;
52940;SDS011;62001;53.366;6.636;2023-05-20T05:00:54;5.78;;;2.00;;
52940;SDS011;62001;53.366;6.636;2023-05-20T05:03:20;3.35;;;1.73;;
52940;SDS011;62001;53.366;6.636;2023-05-20T05:05:46;4.05;;;1.77;;
52940;SDS011;62001;53.366;6.636;2023-05-20T05:08:12;3.25;;;1.50;;
52940;SDS011;62001;53.366;6.636;2023-05-20T05:10:38;2.47;;;1.70;;
52940;SDS011;62001;53.366;6.636;2023-05-20T05:13:05;3.67;;;1.77;;
52940;SDS011;62001;53.366;6.636;2023-05-20T05:15:31;2.83;;;1.60;;
52940;SDS011;62001;53.366;6.636;2023-05-20T05:17:56;3.25;;;1.60;;
52940;SDS011;62001;53.366;6.636;2023-05-20T05:20:22;3.53;;;1.50;;
52940;SDS011;62001;53.366;6.636;2023-05-20T05:22:48;6.43;;;1.80;;
52940;SDS011;62001;53.366;6.636;2023-05-20T05:25:14;3.55;;;1.58;;
52940;SDS011;62001;53.366;6.636;2023-05-20T05:27:40;4.10;;;1.83;;
52940;SDS011;62001;53.366;6.636;2023-05-20T05:30:07;5.22;;;1.58;;
52940;SDS011;62001;53.366;6.636;2023-05-20T05:32:33;3.88;;;1.40;;
52940;SDS011;62001;53.366;6.636;2023-05-20T05:35:00;2.83;;;1.33;;
52940;SDS011;62001;53.366;6.636;2023-05-20T05:37:26;2.40;;;1.55;;
52940;SDS011;62001;53.366;6.636;2023-05-20T05:39:52;3.75;;;1.50;;
52940;SDS011;62001;53.366;6.636;2023-05-20T05:42:18;3.95;;;1.30;;
52940;SDS011;62001;53.366;6.636;2023-05-20T05:44:43;7.30;;;1.67;;
52940;SDS011;62001;53.366;6.636;2023-05-20T05:47:12;3.42;;;1.27;;
52940;SDS011;62001;53.366;6.636;2023-05-20T05:49:38;2.70;;;1.30;;
52940;SDS011;62001;53.366;6.636;2023-05-20T05:52:03;4.18;;;1.60;;
52940;SDS011;62001;53.366;6.636;2023-05-20T05:54:29;4.65;;;1.60;;
52940;SDS011;62001;53.366;6.636;2023-05-20T05:56:55;3.17;;;1.17;;
52940;SDS011;62001;53.366;6.636;2023-05-20T05:59:21;4.28;;;1.45;;
52940;SDS011;62001;53.366;6.636;2023-05-20T06:01:47;6.07;;;1.50;;
52940;SDS011;62001;53.366;6.636;2023-05-20T06:04:13;2.92;;;1.33;;
52940;SDS011;62001;53.366;6.636;2023-05-20T06:06:39;5.32;;;1.60;;
52940;SDS011;62001;53.366;6.636;2023-05-20T06:09:05;9.27;;;1.60;;
52940;SDS011;62001;53.366;6.636;2023-05-20T06:11:31;2.95;;;1.38;;
52940;SDS011;62001;53.366;6.636;2023-05-20T06:13:57;5.00;;;1.30;;
52940;SDS011;62001;53.366;6.636;2023-05-20T06:16:24;4.38;;;1.40;;
52940;SDS011;62001;53.366;6.636;2023-05-20T06:18:50;3.70;;;1.50;;
52940;SDS011;62001;53.366;6.636;2023-05-20T06:21:17;2.95;;;1.40;;
52940;SDS011;62001;53.366;6.636;2023-05-20T06:23:43;5.75;;;1.40;;
52940;SDS011;62001;53.366;6.636;2023-05-20T06:26:09;4.05;;;1.35;;
52940;SDS011;62001;53.366;6.636;2023-05-20T06:28:34;2.10;;;1.20;;
52940;SDS011;62001;53.366;6.636;2023-05-20T06:31:00;9.05;;;1.50;;
52940;SDS011;62001;53.366;6.636;2023-05-20T06:33:26;5.18;;;1.20;;
52940;SDS011;62001;53.366;6.636;2023-05-20T06:35:53;7.13;;;1.55;;
52940;SDS011;62001;53.366;6.636;2023-05-20T06:38:20;2.45;;;1.30;;
52940;SDS011;62001;53.366;6.636;2023-05-20T06:40:46;8.10;;;1.50;;
52940;SDS011;62001;53.366;6.636;2023-05-20T06:43:13;3.67;;;1.20;;
52940;SDS011;62001;53.366;6.636;2023-05-20T06:45:39;2.80;;;1.55;;
52940;SDS011;62001;53.366;6.636;2023-05-20T06:48:06;3.92;;;1.50;;
52940;SDS011;62001;53.366;6.636;2023-05-20T06:50:32;4.97;;;1.63;;
52940;SDS011;62001;53.366;6.636;2023-05-20T06:52:58;4.03;;;1.40;;
52940;SDS011;62001;53.366;6.636;2023-05-20T06:55:23;4.43;;;1.67;;
52940;SDS011;62001;53.366;6.636;2023-05-20T06:57:50;5.00;;;1.58;;
52940;SDS011;62001;53.366;6.636;2023-05-20T07:00:16;2.15;;;1.30;;
52940;SDS011;62001;53.366;6.636;2023-05-20T07:02:42;2.70;;;1.17;;
52940;SDS011;62001;53.366;6.636;2023-05-20T07:05:08;4.20;;;1.48;;
52940;SDS011;62001;53.366;6.636;2023-05-20T07:07:34;3.70;;;1.40;;
52940;SDS011;62001;53.366;6.636;2023-05-20T07:10:01;4.70;;;1.30;;
52940;SDS011;62001;53.366;6.636;2023-05-20T07:12:30;2.92;;;1.42;;
52940;SDS011;62001;53.366;6.636;2023-05-20T07:14:56;3.67;;;1.30;;
52940;SDS011;62001;53.366;6.636;2023-05-20T07:17:22;5.60;;;1.70;;
52940;SDS011;62001;53.366;6.636;2023-05-20T07:19:49;3.35;;;1.30;;
52940;SDS011;62001;53.366;6.636;2023-05-20T07:22:14;3.22;;;1.50;;
52940;SDS011;62001;53.366;6.636;2023-05-20T07:24:40;3.90;;;1.48;;
52940;SDS011;62001;53.366;6.636;2023-05-20T07:27:06;3.80;;;1.27;;
52940;SDS011;62001;53.366;6.636;2023-05-20T07:29:33;4.53;;;1.30;;
52940;SDS011;62001;53.366;6.636;2023-05-20T07:32:02;2.40;;;1.20;;
52940;SDS011;62001;53.366;6.636;2023-05-20T07:34:29;3.00;;;1.30;;
52940;SDS011;62001;53.366;6.636;2023-05-20T07:36:56;3.80;;;1.35;;
52940;SDS011;62001;53.366;6.636;2023-05-20T07:39:22;5.57;;;1.38;;
52940;SDS011;62001;53.366;6.636;2023-05-20T07:41:48;4.75;;;1.50;;
52940;SDS011;62001;53.366;6.636;2023-05-20T07:44:14;4.32;;;1.50;;
52940;SDS011;62001;53.366;6.636;2023-05-20T07:46:42;1.65;;;1.20;;
52940;SDS011;62001;53.366;6.636;2023-05-20T07:49:09;3.15;;;1.48;;
52940;SDS011;62001;53.366;6.636;2023-05-20T07:51:35;4.03;;;1.50;;
52940;SDS011;62001;53.366;6.636;2023-05-20T07:54:01;3.10;;;1.40;;
52940;SDS011;62001;53.366;6.636;2023-05-20T07:56:27;5.35;;;1.67;;
52940;SDS011;62001;53.366;6.636;2023-05-20T07:58:54;3.50;;;1.20;;
52940;SDS011;62001;53.366;6.636;2023-05-20T08:01:22;3.42;;;1.30;;
52940;SDS011;62001;53.366;6.636;2023-05-20T08:03:48;4.55;;;1.17;;
52940;SDS011;62001;53.366;6.636;2023-05-20T08:06:14;3.17;;;1.48;;
52940;SDS011;62001;53.366;6.636;2023-05-20T08:08:41;3.08;;;1.30;;
52940;SDS011;62001;53.366;6.636;2023-05-20T08:11:07;4.22;;;1.23;;
52940;SDS011;62001;53.366;6.636;2023-05-20T08:13:34;2.83;;;1.17;;
52940;SDS011;62001;53.366;6.636;2023-05-20T08:16:00;4.00;;;1.35;;
52940;SDS011;62001;53.366;6.636;2023-05-20T08:18:28;2.50;;;1.20;;
52940;SDS011;62001;53.366;6.636;2023-05-20T08:20:54;6.10;;;1.38;;
52940;SDS011;62001;53.366;6.636;2023-05-20T08:23:20;3.70;;;1.20;;
52940;SDS011;62001;53.366;6.636;2023-05-20T08:25:46;1.67;;;1.13;;
52940;SDS011;62001;53.366;6.636;2023-05-20T08:28:12;4.28;;;1.77;;
52940;SDS011;62001;53.366;6.636;2023-05-20T08:30:38;4.30;;;1.27;;
52940;SDS011;62001;53.366;6.636;2023-05-20T08:33:05;3.53;;;1.30;;
52940;SDS011;62001;53.366;6.636;2023-05-20T08:35:31;3.33;;;1.55;;
52940;SDS011;62001;53.366;6.636;2023-05-20T08:37:57;4.45;;;1.30;;
52940;SDS011;62001;53.366;6.636;2023-05-20T08:40:23;4.47;;;1.38;;
52940;SDS011;62001;53.366;6.636;2023-05-20T08:42:50;3.50;;;1.33;;
52940;SDS011;62001;53.366;6.636;2023-05-20T08:45:17;4.53;;;1.55;;
52940;SDS011;62001;53.366;6.636;2023-05-20T08:47:45;1.27;;;1.15;;
52940;SDS011;62001;53.366;6.636;2023-05-20T08:50:11;3.88;;;1.60;;
52940;SDS011;62001;53.366;6.636;2023-05-20T08:52:42;4.85;;;1.33;;
52940;SDS011;62001;53.366;6.636;2023-05-20T08:55:25;5.57;;;1.60;;
52940;SDS011;62001;53.366;6.636;2023-05-20T08:57:52;4.78;;;1.58;;
52940;SDS011;62001;53.366;6.636;2023-05-20T09:00:21;6.75;;;1.77;;
52940;SDS011;62001;53.366;6.636;2023-05-20T09:02:51;9.82;;;2.00;;
52940;SDS011;62001;53.366;6.636;2023-05-20T09:05:17;6.03;;;1.73;;
52940;SDS011;62001;53.366;6.636;2023-05-20T09:07:43;6.00;;;1.60;;
52940;SDS011;62001;53.366;6.636;2023-05-20T09:10:10;5.95;;;1.52;;
52940;SDS011;62001;53.366;6.636;2023-05-20T09:12:36;5.50;;;1.63;;
52940;SDS011;62001;53.366;6.636;2023-05-20T09:15:02;10.48;;;2.08;;
52940;SDS011;62001;53.366;6.636;2023-05-20T09:17:29;6.13;;;1.90;;
52940;SDS011;62001;53.366;6.636;2023-05-20T09:19:55;6.80;;;2.00;;
52940;SDS011;62001;53.366;6.636;2023-05-20T09:22:24;7.70;;;2.08;;
52940;SDS011;62001;53.366;6.636;2023-05-20T09:24:52;8.43;;;1.70;;
52940;SDS011;62001;53.366;6.636;2023-05-20T09:27:19;9.02;;;2.00;;
52940;SDS011;62001;53.366;6.636;2023-05-20T09:29:46;7.22;;;2.15;;
52940;SDS011;62001;53.366;6.636;2023-05-20T09:32:13;6.53;;;2.17;;
52940;SDS011;62001;53.366;6.636;2023-05-20T09:34:40;9.98;;;2.22;;
52940;SDS011;62001;53.366;6.636;2023-05-20T09:37:07;8.93;;;2.25;;
52940;SDS011;62001;53.366;6.636;2023-05-20T09:42:28;5.47;;;2.10;;
52940;SDS011;62001;53.366;6.636;2023-05-20T09:45:02;10.73;;;2.40;;
52940;SDS011;62001;53.366;6.636;2023-05-20T09:47:29;11.18;;;2.40;;
52940;SDS011;62001;53.366;6.636;2023-05-20T09:49:56;8.00;;;2.20;;
52940;SDS011;62001;53.366;6.636;2023-05-20T09:52:22;8.68;;;2.20;;
52940;SDS011;62001;53.366;6.636;2023-05-20T09:54:52;7.00;;;2.20;;
52940;SDS011;62001;53.366;6.636;2023-05-20T09:57:20;7.82;;;2.30;;
52940;SDS011;62001;53.366;6.636;2023-05-20T09:59:46;7.75;;;2.58;;
52940;SDS011;62001;53.366;6.636;2023-05-20T10:02:13;8.10;;;2.47;;
52940;SDS011;62001;53.366;6.636;2023-05-20T10:04:40;8.82;;;2.22;;
52940;SDS011;62001;53.366;6.636;2023-05-20T10:07:34;8.93;;;2.60;;
52940;SDS011;62001;53.366;6.636;2023-05-20T10:10:32;7.65;;;2.17;;
52940;SDS011;62001;53.366;6.636;2023-05-20T10:13:30;6.57;;;2.55;;
52940;SDS011;62001;53.366;6.636;2023-05-20T10:16:12;7.90;;;2.53;;
52940;SDS011;62001;53.366;6.636;2023-05-20T10:21:35;9.55;;;2.58;;
52940;SDS011;62001;53.366;6.636;2023-05-20T10:24:08;8.18;;;2.38;;
52940;SDS011;62001;53.366;6.636;2023-05-20T10:26:35;7.82;;;2.88;;
52940;SDS011;62001;53.366;6.636;2023-05-20T10:29:13;8.80;;;2.70;;
52940;SDS011;62001;53.366;6.636;2023-05-20T10:31:43;13.70;;;2.70;;
52940;SDS011;62001;53.366;6.636;2023-05-20T10:34:15;5.95;;;2.50;;
52940;SDS011;62001;53.366;6.636;2023-05-20T10:37:01;8.85;;;2.40;;
52940;SDS011;62001;53.366;6.636;2023-05-20T10:39:27;8.18;;;3.00;;
52940;SDS011;62001;53.366;6.636;2023-05-20T10:42:07;13.23;;;3.30;;
52940;SDS011;62001;53.366;6.636;2023-05-20T10:44:43;8.90;;;2.90;;
52940;SDS011;62001;53.366;6.636;2023-05-20T10:47:10;12.20;;;2.60;;
52940;SDS011;62001;53.366;6.636;2023-05-20T10:49:54;10.27;;;3.08;;
52940;SDS011;62001;53.366;6.636;2023-05-20T10:52:20;5.55;;;2.78;;
52940;SDS011;62001;53.366;6.636;2023-05-20T10:54:53;7.68;;;2.90;;
52940;SDS011;62001;53.366;6.636;2023-05-20T10:57:22;8.77;;;3.00;;
52940;SDS011;62001;53.366;6.636;2023-05-20T10:59:52;9.20;;;3.20;;
52940;SDS011;62001;53.366;6.636;2023-05-20T11:02:19;7.72;;;2.92;;
52940;SDS011;62001;53.366;6.636;2023-05-20T11:04:52;10.07;;;3.25;;
52940;SDS011;62001;53.366;6.636;2023-05-20T11:09:51;8.30;;;2.55;;
52940;SDS011;62001;53.366;6.636;2023-05-20T11:12:17;10.63;;;2.65;;
52940;SDS011;62001;53.366;6.636;2023-05-20T11:14:46;8.27;;;2.90;;
52940;SDS011;62001;53.366;6.636;2023-05-20T11:17:13;10.23;;;3.50;;
52940;SDS011;62001;53.366;6.636;2023-05-20T11:19:40;6.47;;;2.75;;
52940;SDS011;62001;53.366;6.636;2023-05-20T11:22:06;5.85;;;3.13;;
52940;SDS011;62001;53.366;6.636;2023-05-20T11:24:32;9.35;;;3.33;;
52940;SDS011;62001;53.366;6.636;2023-05-20T11:27:00;7.13;;;3.08;;
52940;SDS011;62001;53.366;6.636;2023-05-20T11:29:26;7.82;;;3.25;;
52940;SDS011;62001;53.366;6.636;2023-05-20T11:31:53;7.72;;;3.50;;
52940;SDS011;62001;53.366;6.636;2023-05-20T11:34:21;9.50;;;3.45;;
52940;SDS011;62001;53.366;6.636;2023-05-20T11:36:48;9.48;;;3.58;;
52940;SDS011;62001;53.366;6.636;2023-05-20T11:39:23;10.57;;;3.75;;
52940;SDS011;62001;53.366;6.636;2023-05-20T11:41:50;9.73;;;2.90;;
52940;SDS011;62001;53.366;6.636;2023-05-20T11:44:18;12.60;;;3.72;;
52940;SDS011;62001;53.366;6.636;2023-05-20T11:46:45;7.15;;;3.58;;
52940;SDS011;62001;53.366;6.636;2023-05-20T11:49:14;9.48;;;3.55;;
52940;SDS011;62001;53.366;6.636;2023-05-20T11:51:44;8.20;;;3.50;;
52940;SDS011;62001;53.366;6.636;2023-05-20T11:54:09;7.25;;;3.50;;
52940;SDS011;62001;53.366;6.636;2023-05-20T11:56:36;9.98;;;3.58;;
52940;SDS011;62001;53.366;6.636;2023-05-20T11:59:05;9.43;;;3.67;;
52940;SDS011;62001;53.366;6.636;2023-05-20T12:01:34;9.77;;;3.97;;
52940;SDS011;62001;53.366;6.636;2023-05-20T12:04:04;6.38;;;3.63;;
52940;SDS011;62001;53.366;6.636;2023-05-20T12:06:31;9.30;;;3.85;;
52940;SDS011;62001;53.366;6.636;2023-05-20T12:11:32;9.60;;;3.90;;
52940;SDS011;62001;53.366;6.636;2023-05-20T12:13:59;10.25;;;3.88;;
52940;SDS011;62001;53.366;6.636;2023-05-20T12:16:28;10.50;;;4.30;;
52940;SDS011;62001;53.366;6.636;2023-05-20T12:19:01;7.65;;;4.15;;
52940;SDS011;62001;53.366;6.636;2023-05-20T12:21:31;8.98;;;3.60;;
52940;SDS011;62001;53.366;6.636;2023-05-20T12:23:58;8.90;;;3.85;;
52940;SDS011;62001;53.366;6.636;2023-05-20T12:26:28;9.18;;;3.75;;
52940;SDS011;62001;53.366;6.636;2023-05-20T12:28:56;11.15;;;3.95;;
52940;SDS011;62001;53.366;6.636;2023-05-20T12:31:28;10.80;;;4.15;;
52940;SDS011;62001;53.366;6.636;2023-05-20T12:33:58;9.90;;;4.00;;
52940;SDS011;62001;53.366;6.636;2023-05-20T12:36:25;12.95;;;4.07;;
52940;SDS011;62001;53.366;6.636;2023-05-20T12:38:54;10.48;;;4.28;;
52940;SDS011;62001;53.366;6.636;2023-05-20T12:41:24;11.60;;;3.80;;
52940;SDS011;62001;53.366;6.636;2023-05-20T12:43:55;12.98;;;4.00;;
52940;SDS011;62001;53.366;6.636;2023-05-20T12:46:21;10.80;;;4.00;;
52940;SDS011;62001;53.366;6.636;2023-05-20T12:48:47;10.45;;;4.18;;
52940;SDS011;62001;53.366;6.636;2023-05-20T12:51:13;15.38;;;4.22;;
52940;SDS011;62001;53.366;6.636;2023-05-20T12:53:40;9.73;;;3.33;;
52940;SDS011;62001;53.366;6.636;2023-05-20T12:56:09;10.15;;;3.58;;
52940;SDS011;62001;53.366;6.636;2023-05-20T12:58:35;11.43;;;4.00;;
52940;SDS011;62001;53.366;6.636;2023-05-20T13:01:00;9.20;;;4.05;;
52940;SDS011;62001;53.366;6.636;2023-05-20T13:03:29;11.52;;;4.10;;
52940;SDS011;62001;53.366;6.636;2023-05-20T13:05:55;9.63;;;3.90;;
52940;SDS011;62001;53.366;6.636;2023-05-20T13:08:21;7.90;;;3.97;;
52940;SDS011;62001;53.366;6.636;2023-05-20T13:10:47;9.57;;;3.92;;
52940;SDS011;62001;53.366;6.636;2023-05-20T13:13:13;7.35;;;3.63;;
52940;SDS011;62001;53.366;6.636;2023-05-20T13:15:45;12.32;;;3.95;;
52940;SDS011;62001;53.366;6.636;2023-05-20T13:18:14;12.95;;;3.90;;
52940;SDS011;62001;53.366;6.636;2023-05-20T13:20:43;10.25;;;4.00;;
52940;SDS011;62001;53.366;6.636;2023-05-20T13:23:09;12.68;;;4.07;;
52940;SDS011;62001;53.366;6.636;2023-05-20T13:25:36;9.90;;;4.07;;
52940;SDS011;62001;53.366;6.636;2023-05-20T13:28:02;13.88;;;4.30;;
52940;SDS011;62001;53.366;6.636;2023-05-20T13:30:29;9.10;;;4.28;;
52940;SDS011;62001;53.366;6.636;2023-05-20T13:32:56;9.27;;;4.10;;
52940;SDS011;62001;53.366;6.636;2023-05-20T13:35:22;9.32;;;4.30;;
52940;SDS011;62001;53.366;6.636;2023-05-20T13:37:48;13.57;;;4.20;;
52940;SDS011;62001;53.366;6.636;2023-05-20T13:40:14;8.18;;;3.50;;
52940;SDS011;62001;53.366;6.636;2023-05-20T13:42:40;10.02;;;4.13;;
52940;SDS011;62001;53.366;6.636;2023-05-20T13:45:06;9.65;;;3.38;;
52940;SDS011;62001;53.366;6.636;2023-05-20T13:47:32;10.32;;;3.65;;
52940;SDS011;62001;53.366;6.636;2023-05-20T13:49:58;7.90;;;3.75;;
52940;SDS011;62001;53.366;6.636;2023-05-20T13:52:23;12.88;;;4.28;;
52940;SDS011;62001;53.366;6.636;2023-05-20T13:54:49;9.45;;;3.40;;
52940;SDS011;62001;53.366;6.636;2023-05-20T13:57:15;10.65;;;3.88;;
52940;SDS011;62001;53.366;6.636;2023-05-20T13:59:41;7.63;;;3.75;;
52940;SDS011;62001;53.366;6.636;2023-05-20T14:02:07;8.10;;;3.92;;
52940;SDS011;62001;53.366;6.636;2023-05-20T14:04:33;7.50;;;3.67;;
52940;SDS011;62001;53.366;6.636;2023-05-20T14:07:06;7.90;;;3.60;;
52940;SDS011;62001;53.366;6.636;2023-05-20T14:09:32;9.68;;;3.38;;
52940;SDS011;62001;53.366;6.636;2023-05-20T14:11:58;9.88;;;3.65;;
52940;SDS011;62001;53.366;6.636;2023-05-20T14:14:24;7.25;;;3.53;;
52940;SDS011;62001;53.366;6.636;2023-05-20T14:16:50;12.30;;;3.80;;
52940;SDS011;62001;53.366;6.636;2023-05-20T14:19:16;11.23;;;3.63;;
52940;SDS011;62001;53.366;6.636;2023-05-20T14:21:41;10.88;;;3.67;;
52940;SDS011;62001;53.366;6.636;2023-05-20T14:24:07;7.32;;;3.67;;
52940;SDS011;62001;53.366;6.636;2023-05-20T14:26:33;13.02;;;4.05;;
52940;SDS011;62001;53.366;6.636;2023-05-20T14:28:59;8.68;;;3.75;;
52940;SDS011;62001;53.366;6.636;2023-05-20T14:31:25;10.15;;;3.97;;
52940;SDS011;62001;53.366;6.636;2023-05-20T14:33:51;7.72;;;3.40;;
52940;SDS011;62001;53.366;6.636;2023-05-20T14:36:17;8.32;;;3.47;;
52940;SDS011;62001;53.366;6.636;2023-05-20T14:38:43;6.57;;;3.38;;
52940;SDS011;62001;53.366;6.636;2023-05-20T14:41:09;7.25;;;2.88;;
52940;SDS011;62001;53.366;6.636;2023-05-20T14:43:35;8.05;;;2.55;;
52940;SDS011;62001;53.366;6.636;2023-05-20T14:46:01;6.57;;;2.75;;
52940;SDS011;62001;53.366;6.636;2023-05-20T14:48:28;5.78;;;3.00;;
52940;SDS011;62001;53.366;6.636;2023-05-20T14:50:54;7.55;;;2.80;;
52940;SDS011;62001;53.366;6.636;2023-05-20T14:53:20;7.20;;;2.58;;
52940;SDS011;62001;53.366;6.636;2023-05-20T14:55:46;5.45;;;2.50;;
52940;SDS011;62001;53.366;6.636;2023-05-20T14:58:12;4.35;;;2.25;;